Time;durP1;ratioP1;P1;durP2;ratioP2;P2;SDS_P1;SDS_P2;PMS_P1;PMS_P2;Temp;Humidity;BMP_temperature;BMP_pressure;BME280_temperature;BME280_humidity;BME280_pressure;Samples;Min_cycle;Max_cycle;Signal;HPM_P1;HPM_P2
2021/03/07 00:00:15;;;;;;;10.40;5.57;;;-0.70;99.90;;;;;;5037877;28;20405;-82
2021/03/07 00:02:42;;;;;;;10.67;5.40;;;-0.80;99.90;;;;;;5049213;28;20033;-83
2021/03/07 00:05:11;;;;;;;7.80;4.73;;;-0.80;99.90;;;;;;5047835;28;20040;-79
2021/03/07 00:07:37;;;;;;;9.93;5.20;;;-0.70;99.90;;;;;;5045679;28;20356;-80
2021/03/07 00:10:07;;;;;;;9.30;5.07;;;-0.70;99.90;;;;;;5043286;28;20493;-79
2021/03/07 00:12:34;;;;;;;11.20;4.97;;;-0.70;99.90;;;;;;5042219;28;20037;-79
2021/03/07 00:15:00;;;;;;;9.73;5.20;;;-0.80;99.90;;;;;;5047782;28;20033;-78
2021/03/07 00:17:26;;;;;;;13.10;5.60;;;-0.80;99.90;;;;;;5065957;28;20657;-80
2021/03/07 00:19:51;;;;;;;11.03;5.43;;;-0.70;99.90;;;;;;5044190;28;20036;-79
2021/03/07 00:22:17;;;;;;;11.40;5.47;;;-0.70;99.90;;;;;;5045154;28;20459;-80
2021/03/07 00:24:43;;;;;;;12.40;5.53;;;-0.80;99.90;;;;;;5050854;28;20025;-79
2021/03/07 00:27:09;;;;;;;9.70;5.40;;;-0.90;99.90;;;;;;5041719;28;20129;-80
2021/03/07 00:29:35;;;;;;;10.63;5.33;;;-0.90;99.90;;;;;;5053000;28;20080;-81
2021/03/07 00:32:01;;;;;;;10.13;4.97;;;-0.80;99.90;;;;;;5047163;28;20029;-79
2021/03/07 00:34:26;;;;;;;11.90;6.03;;;-0.80;99.90;;;;;;5047819;28;20400;-79
2021/03/07 00:36:52;;;;;;;9.27;5.20;;;-0.80;99.90;;;;;;5045551;28;20060;-79
2021/03/07 00:39:18;;;;;;;10.03;5.60;;;-0.90;99.90;;;;;;5042165;28;20041;-79
2021/03/07 00:41:44;;;;;;;9.30;5.73;;;-1.00;99.90;;;;;;5052375;28;20408;-79
2021/03/07 00:44:11;;;;;;;10.43;5.30;;;-1.10;99.90;;;;;;5046137;28;20071;-79
2021/03/07 00:46:41;;;;;;;10.37;5.40;;;-1.10;99.90;;;;;;5052557;28;20415;-80
2021/03/07 00:49:07;;;;;;;9.67;5.27;;;-1.10;99.90;;;;;;5037891;28;20028;-79
2021/03/07 00:51:33;;;;;;;11.10;5.70;;;-1.00;99.90;;;;;;5048397;28;20180;-79
2021/03/07 00:53:58;;;;;;;7.70;4.53;;;-0.90;99.90;;;;;;5040901;28;20124;-79
2021/03/07 00:56:24;;;;;;;10.80;5.83;;;-0.80;99.90;;;;;;5032635;28;20057;-78
2021/03/07 00:58:50;;;;;;;12.27;6.23;;;-0.80;99.90;;;;;;5039850;28;20546;-78
2021/03/07 01:01:15;;;;;;;11.70;5.97;;;-0.80;99.90;;;;;;5049051;28;20451;-78
2021/03/07 01:03:41;;;;;;;10.03;6.00;;;-0.90;99.90;;;;;;5043469;28;20393;-79
2021/03/07 01:06:07;;;;;;;15.87;7.93;;;-0.80;99.90;;;;;;5047100;28;20028;-78
2021/03/07 01:08:32;;;;;;;14.13;6.10;;;-0.70;99.90;;;;;;5032713;28;20053;-80
2021/03/07 01:10:58;;;;;;;10.53;5.37;;;-0.80;99.90;;;;;;5049378;28;20488;-79
2021/03/07 01:13:24;;;;;;;9.70;5.53;;;-0.80;99.90;;;;;;5049840;28;20041;-79
2021/03/07 01:15:50;;;;;;;10.40;5.00;;;-0.90;99.90;;;;;;5042986;28;20071;-79
2021/03/07 01:18:15;;;;;;;13.33;5.97;;;-0.90;99.90;;;;;;5051286;28;20052;-79
2021/03/07 01:20:42;;;;;;;10.27;4.93;;;-0.90;99.90;;;;;;5038189;28;20071;-78
2021/03/07 01:23:08;;;;;;;16.50;5.80;;;-0.90;99.90;;;;;;5035890;28;20037;-79
2021/03/07 01:25:36;;;;;;;10.07;5.80;;;-0.90;99.90;;;;;;5049889;28;20044;-80
2021/03/07 01:28:03;;;;;;;11.43;5.10;;;-0.90;99.90;;;;;;5047000;28;20082;-79
2021/03/07 01:30:32;;;;;;;10.40;5.33;;;-0.90;99.90;;;;;;5037724;28;20057;-78
2021/03/07 01:32:58;;;;;;;11.65;5.45;;;-1.00;99.90;;;;;;5049242;28;20130;-78
2021/03/07 01:35:24;;;;;;;10.30;5.53;;;-1.10;99.90;;;;;;5035853;28;20496;-79
2021/03/07 01:37:50;;;;;;;11.50;5.63;;;-1.10;99.90;;;;;;5048117;28;20042;-79
2021/03/07 01:40:19;;;;;;;10.77;5.97;;;-1.10;99.90;;;;;;5035258;28;20136;-78
2021/03/07 01:42:53;;;;;;;12.05;5.30;;;-1.20;99.90;;;;;;5050312;28;20017;-79
2021/03/07 01:45:20;;;;;;;12.43;6.43;;;-1.20;99.90;;;;;;5036533;28;20056;-79
2021/03/07 01:47:47;;;;;;;13.37;5.70;;;-1.20;99.90;;;;;;5044047;28;20074;-79
2021/03/07 01:50:16;;;;;;;13.03;6.17;;;-1.30;99.90;;;;;;5041949;28;20118;-79
2021/03/07 01:52:42;;;;;;;14.02;6.85;;;-1.30;99.90;;;;;;5044942;28;20024;-78
2021/03/07 01:55:09;;;;;;;12.50;6.70;;;-1.30;99.90;;;;;;5044710;28;20055;-78
2021/03/07 01:57:37;;;;;;;11.93;6.90;;;-1.40;99.90;;;;;;5045006;28;20382;-79
2021/03/07 02:00:09;;;;;;;11.30;7.00;;;-1.50;99.90;;;;;;5049441;28;20021;-80
2021/03/07 02:02:35;;;;;;;13.37;6.70;;;-1.50;99.90;;;;;;5049959;28;20021;-79
2021/03/07 02:05:08;;;;;;;11.67;6.83;;;-1.60;99.90;;;;;;5038137;28;20049;-79
2021/03/07 02:07:34;;;;;;;10.90;6.43;;;-1.60;99.90;;;;;;5050154;28;20017;-79
2021/03/07 02:10:01;;;;;;;15.43;7.27;;;-1.60;99.90;;;;;;5046129;28;20013;-78
2021/03/07 02:12:28;;;;;;;13.27;6.80;;;-1.70;99.90;;;;;;5042190;28;20060;-79
2021/03/07 02:14:56;;;;;;;13.37;7.00;;;-1.60;99.90;;;;;;5036218;28;20051;-78
2021/03/07 02:17:22;;;;;;;11.37;6.57;;;-1.70;99.90;;;;;;5046219;28;20029;-78
2021/03/07 02:19:49;;;;;;;13.10;7.40;;;-1.70;99.90;;;;;;5036986;28;20360;-78
2021/03/07 02:22:39;;;;;;;13.77;7.70;;;-1.70;99.90;;;;;;5046926;28;20025;-79
2021/03/07 02:25:09;;;;;;;12.40;7.00;;;-1.80;99.90;;;;;;5053375;28;20037;-78
2021/03/07 02:27:36;;;;;;;13.73;7.23;;;-1.80;99.90;;;;;;5040700;28;20029;-78
2021/03/07 02:30:08;;;;;;;11.17;6.90;;;-1.80;99.90;;;;;;5049015;28;20041;-80
2021/03/07 02:32:38;;;;;;;13.83;7.03;;;-1.90;99.90;;;;;;5042822;28;20113;-79
2021/03/07 02:35:07;;;;;;;11.67;6.60;;;-1.80;99.90;;;;;;5045057;28;20501;-78
2021/03/07 02:37:35;;;;;;;12.63;6.57;;;-1.90;99.90;;;;;;5045953;28;20022;-79
2021/03/07 02:40:02;;;;;;;13.23;7.03;;;-1.90;99.90;;;;;;5032979;28;20449;-79
2021/03/07 02:42:30;;;;;;;13.80;6.80;;;-1.90;99.90;;;;;;5040301;28;20057;-79
2021/03/07 02:45:04;;;;;;;12.77;7.00;;;-1.90;99.90;;;;;;5047752;28;20032;-79
2021/03/07 02:47:32;;;;;;;13.93;7.00;;;-1.90;99.90;;;;;;5040839;28;20111;-78
2021/03/07 02:50:05;;;;;;;14.23;7.00;;;-1.90;99.90;;;;;;5045477;28;20057;-78
2021/03/07 02:52:31;;;;;;;13.80;7.00;;;-1.90;99.90;;;;;;5045378;28;20021;-79
2021/03/07 02:55:00;;;;;;;13.33;7.63;;;-2.00;99.90;;;;;;5046516;28;20471;-78
2021/03/07 02:57:26;;;;;;;12.37;6.80;;;-2.00;99.90;;;;;;5044468;28;20083;-79
2021/03/07 02:59:57;;;;;;;10.93;6.80;;;-2.00;99.90;;;;;;5049281;28;20052;-79
2021/03/07 03:02:24;;;;;;;13.90;8.20;;;-2.00;99.90;;;;;;5040282;28;20419;-78
2021/03/07 03:04:50;;;;;;;13.07;6.97;;;-2.00;99.90;;;;;;5040780;28;20077;-77
2021/03/07 03:07:18;;;;;;;16.13;7.80;;;-2.00;99.90;;;;;;5041679;28;20032;-78
2021/03/07 03:09:46;;;;;;;15.03;7.63;;;-2.00;99.90;;;;;;5055042;28;20138;-78
2021/03/07 03:12:12;;;;;;;14.90;7.30;;;-2.00;99.90;;;;;;5039533;28;20029;-77
2021/03/07 03:14:41;;;;;;;12.27;7.07;;;-2.10;99.90;;;;;;5039546;28;20041;-79
2021/03/07 03:17:07;;;;;;;13.82;7.75;;;-2.10;99.90;;;;;;5050793;28;20480;-79
2021/03/07 03:19:34;;;;;;;15.30;7.70;;;-2.10;99.90;;;;;;5049840;28;20044;-79
2021/03/07 03:22:01;;;;;;;16.90;7.80;;;-2.20;99.90;;;;;;5046404;28;20323;-78
2021/03/07 03:24:26;;;;;;;14.73;7.60;;;-2.20;99.90;;;;;;5035580;28;20040;-78
2021/03/07 03:27:02;;;;;;;13.27;7.37;;;-2.20;99.90;;;;;;5045073;28;20051;-78
2021/03/07 03:29:32;;;;;;;12.57;7.23;;;-2.20;99.90;;;;;;5043319;28;20037;-77
2021/03/07 03:31:57;;;;;;;;;;;-2.20;99.90;;;;;;5053774;28;20100;-81
2021/03/07 03:34:23;;;;;;;12.60;7.10;;;-2.30;99.90;;;;;;5041962;28;20007;-79
2021/03/07 03:36:49;;;;;;;14.97;7.97;;;-2.30;99.90;;;;;;5052650;28;20158;-80
2021/03/07 03:39:20;;;;;;;17.40;8.60;;;-2.30;99.90;;;;;;5039844;28;20041;-78
2021/03/07 03:41:50;;;;;;;16.07;7.90;;;-2.40;99.90;;;;;;5050714;28;20029;-78
2021/03/07 03:44:20;;;;;;;15.18;7.72;;;-2.40;99.90;;;;;;5044656;28;20037;-79
2021/03/07 03:46:50;;;;;;;15.20;7.77;;;-2.40;99.90;;;;;;5040049;28;20033;-79
2021/03/07 03:49:36;;;;;;;;;;;-2.40;99.90;;;;;;5040197;28;20044;-78
2021/03/07 03:52:06;;;;;;;13.37;7.43;;;-2.50;99.90;;;;;;5037825;28;20008;-79
2021/03/07 03:54:41;;;;;;;15.70;8.53;;;-2.50;99.90;;;;;;5044533;28;20033;-78
2021/03/07 03:57:08;;;;;;;15.63;8.20;;;-2.50;99.90;;;;;;5040654;28;20028;-79
2021/03/07 03:59:37;;;;;;;20.73;8.90;;;-2.50;99.90;;;;;;5033280;28;20136;-78
2021/03/07 04:02:05;;;;;;;14.73;8.40;;;-2.50;99.90;;;;;;5041755;28;20033;-79
2021/03/07 04:04:33;;;;;;;14.90;8.30;;;-2.50;99.90;;;;;;5046358;28;20100;-78
2021/03/07 04:06:59;;;;;;;15.20;7.97;;;-2.50;99.90;;;;;;5050556;28;20138;-77
2021/03/07 04:09:27;;;;;;;14.40;7.43;;;-2.50;99.90;;;;;;5047844;28;20052;-79
2021/03/07 04:11:53;;;;;;;16.60;8.20;;;-2.60;99.90;;;;;;5041210;28;20080;-78
2021/03/07 04:14:20;;;;;;;16.10;8.20;;;-2.50;99.90;;;;;;5034938;28;20033;-79
2021/03/07 04:16:49;;;;;;;17.83;8.83;;;-2.60;99.90;;;;;;5045961;28;20112;-79
2021/03/07 04:19:18;;;;;;;14.35;8.07;;;-2.60;99.90;;;;;;5034962;28;20075;-78
2021/03/07 04:21:45;;;;;;;15.57;8.50;;;-2.60;99.90;;;;;;5050599;28;20032;-78
2021/03/07 04:24:12;;;;;;;12.57;7.80;;;-2.60;99.90;;;;;;5046330;28;20388;-79
2021/03/07 04:26:38;;;;;;;15.00;8.17;;;-2.70;99.90;;;;;;5039840;28;20037;-77
2021/03/07 04:29:04;;;;;;;13.07;7.77;;;-2.60;99.90;;;;;;5049863;28;20159;-79
2021/03/07 04:31:32;;;;;;;15.23;7.97;;;-2.70;99.90;;;;;;5042778;28;20021;-78
2021/03/07 04:33:59;;;;;;;15.77;8.33;;;-2.70;99.90;;;;;;5048348;28;20091;-79
2021/03/07 04:36:26;;;;;;;17.57;8.37;;;-2.70;99.90;;;;;;5048369;28;20501;-78
2021/03/07 04:38:54;;;;;;;15.50;8.33;;;-2.70;99.90;;;;;;5052376;28;20029;-80
2021/03/07 04:41:20;;;;;;;15.30;8.83;;;-2.70;99.90;;;;;;5061927;28;20037;-78
2021/03/07 04:43:52;;;;;;;15.97;8.50;;;-2.70;99.90;;;;;;5042492;28;20036;-78
2021/03/07 04:46:19;;;;;;;17.50;8.20;;;-2.80;99.90;;;;;;5044231;28;20469;-79
2021/03/07 04:48:45;;;;;;;16.73;8.47;;;-2.70;99.90;;;;;;5047441;28;20025;-78
2021/03/07 04:51:11;;;;;;;14.57;8.13;;;-2.70;99.90;;;;;;5048506;28;20059;-78
2021/03/07 04:53:36;;;;;;;15.87;8.13;;;-2.70;99.90;;;;;;5045859;28;20025;-78
2021/03/07 04:56:02;;;;;;;15.47;8.33;;;-2.70;99.90;;;;;;5036749;28;20078;-79
2021/03/07 04:58:28;;;;;;;16.97;8.60;;;-2.70;99.90;;;;;;5042978;28;20028;-78
2021/03/07 05:00:53;;;;;;;15.93;8.10;;;-2.70;99.90;;;;;;5058289;28;20118;-78
2021/03/07 05:03:20;;;;;;;14.77;7.60;;;-2.70;99.90;;;;;;5046695;28;20033;-79
2021/03/07 05:05:49;;;;;;;13.27;7.60;;;-2.60;99.90;;;;;;5043913;28;20032;-79
2021/03/07 05:08:14;;;;;;;14.40;7.63;;;-2.60;99.90;;;;;;5051965;28;20044;-80
2021/03/07 05:10:40;;;;;;;14.43;8.13;;;-2.60;99.90;;;;;;5051109;28;20395;-79
2021/03/07 05:13:06;;;;;;;14.17;8.20;;;-2.60;99.90;;;;;;5040791;28;20098;-79
2021/03/07 05:15:32;;;;;;;15.57;8.17;;;-2.60;99.90;;;;;;5045282;28;20048;-80
2021/03/07 05:17:57;;;;;;;15.53;8.20;;;-2.70;99.90;;;;;;5050658;28;20021;-79
2021/03/07 05:20:23;;;;;;;15.10;8.17;;;-2.70;99.90;;;;;;5049479;28;20106;-79
2021/03/07 05:22:48;;;;;;;16.43;7.93;;;-2.80;99.90;;;;;;5049618;28;20048;-79
2021/03/07 05:25:14;;;;;;;14.90;7.97;;;-2.80;99.90;;;;;;5049691;28;20033;-79
2021/03/07 05:27:40;;;;;;;14.17;7.33;;;-2.80;99.90;;;;;;5050544;28;20081;-79
2021/03/07 05:30:07;;;;;;;15.13;7.67;;;-2.70;99.90;;;;;;5035134;28;20053;-80
2021/03/07 05:32:32;;;;;;;15.17;7.53;;;-2.70;99.90;;;;;;5030500;28;20079;-80
2021/03/07 05:34:58;;;;;;;14.70;7.80;;;-2.60;99.90;;;;;;5039846;28;20468;-79
2021/03/07 05:37:23;;;;;;;14.33;7.83;;;-2.60;99.90;;;;;;5050151;28;20107;-79
2021/03/07 05:39:49;;;;;;;13.30;7.23;;;-2.60;99.90;;;;;;5050555;28;20037;-79
2021/03/07 05:42:15;;;;;;;13.20;8.03;;;-2.60;99.90;;;;;;5049277;28;20441;-78
2021/03/07 05:44:40;;;;;;;16.97;8.20;;;-2.70;99.90;;;;;;5037166;28;20118;-80
2021/03/07 05:47:06;;;;;;;14.40;7.70;;;-2.70;99.90;;;;;;5040648;28;20028;-79
2021/03/07 05:49:32;;;;;;;14.97;8.50;;;-2.70;99.90;;;;;;5036286;28;20200;-78
2021/03/07 05:51:59;;;;;;;15.00;8.30;;;-2.70;99.90;;;;;;5037633;28;20037;-78
2021/03/07 05:54:25;;;;;;;16.40;8.37;;;-2.70;99.90;;;;;;5032511;28;20026;-82
2021/03/07 05:56:52;;;;;;;14.13;8.70;;;-2.70;99.90;;;;;;5039302;28;20033;-81
2021/03/07 05:59:18;;;;;;;14.93;7.87;;;-2.70;99.90;;;;;;5038000;28;20080;-79
2021/03/07 06:01:45;;;;;;;14.43;8.40;;;-2.70;99.90;;;;;;5045433;28;20044;-79
2021/03/07 06:04:10;;;;;;;14.20;8.00;;;-2.70;99.90;;;;;;5031546;28;20026;-78
2021/03/07 06:06:36;;;;;;;17.00;8.63;;;-2.70;99.90;;;;;;5037332;28;20021;-80
2021/03/07 06:09:23;;;;;;;14.23;8.23;;;-2.70;99.90;;;;;;5042973;28;20026;-79
2021/03/07 06:11:51;;;;;;;17.43;8.23;;;-2.70;99.90;;;;;;5050560;28;20025;-80
2021/03/07 06:14:23;;;;;;;17.00;8.67;;;-2.60;99.90;;;;;;5048224;28;20034;-80
2021/03/07 06:17:05;;;;;;;19.43;8.60;;;-2.60;99.90;;;;;;5043956;28;20378;-79
2021/03/07 06:19:52;;;;;;;14.33;8.07;;;-2.60;99.90;;;;;;5046068;28;20048;-79
2021/03/07 06:22:18;;;;;;;15.53;9.20;;;-2.50;99.90;;;;;;5051164;28;20032;-79
2021/03/07 06:24:43;;;;;;;13.60;8.13;;;-2.40;99.90;;;;;;5045961;28;20041;-78
2021/03/07 06:27:12;;;;;;;14.97;8.30;;;-2.40;99.90;;;;;;5036554;28;20025;-79
2021/03/07 06:29:53;;;;;;;17.00;8.97;;;-2.30;99.90;;;;;;5041561;28;20094;-79
2021/03/07 06:32:18;;;;;;;13.80;8.23;;;-2.20;99.90;;;;;;5051048;28;20819;-79
2021/03/07 06:34:46;;;;;;;14.97;7.87;;;-2.20;99.90;;;;;;5049799;28;20116;-75
2021/03/07 06:37:11;;;;;;;16.07;8.93;;;-2.00;99.90;;;;;;5050648;28;20033;-78
2021/03/07 06:39:37;;;;;;;16.07;8.37;;;-2.00;99.90;;;;;;5036229;28;20032;-78
2021/03/07 06:42:08;;;;;;;14.77;8.53;;;-1.90;99.90;;;;;;5052494;28;20025;-79
2021/03/07 06:44:35;;;;;;;14.23;8.57;;;-1.90;99.90;;;;;;5038609;28;20056;-78
2021/03/07 06:47:10;;;;;;;14.47;8.13;;;-1.80;99.90;;;;;;5042718;28;20036;-80
2021/03/07 06:49:37;;;;;;;14.77;7.73;;;-1.70;99.90;;;;;;5051539;28;20052;-79
2021/03/07 06:52:19;;;;;;;16.37;8.33;;;-1.70;99.90;;;;;;5041648;28;20435;-79
2021/03/07 06:55:05;;;;;;;15.83;8.43;;;-1.60;99.90;;;;;;5040450;28;20036;-78
2021/03/07 06:57:30;;;;;;;16.20;8.03;;;-1.50;99.90;;;;;;5036954;28;20444;-80
2021/03/07 06:59:56;;;;;;;14.93;8.70;;;-1.50;99.90;;;;;;5052635;28;20163;-80
2021/03/07 07:02:23;;;;;;;15.30;8.87;;;-1.40;99.90;;;;;;5042983;28;20167;-80
2021/03/07 07:04:48;;;;;;;14.47;8.27;;;-1.40;99.90;;;;;;5049160;28;20029;-80
2021/03/07 07:07:17;;;;;;;14.93;8.33;;;-1.30;99.90;;;;;;5049133;28;20024;-78
2021/03/07 07:09:44;;;;;;;15.50;8.70;;;-1.20;99.90;;;;;;5041442;28;20017;-78
2021/03/07 07:12:24;;;;;;;15.43;9.20;;;-1.10;99.90;;;;;;5048831;28;20495;-79
2021/03/07 07:15:02;;;;;;;16.60;9.80;;;-1.00;99.90;;;;;;5039276;28;20137;-79
2021/03/07 07:17:27;;;;;;;15.93;8.53;;;-0.90;99.90;;;;;;5040880;28;20020;-80
2021/03/07 07:19:56;;;;;;;16.37;9.43;;;-0.70;99.90;;;;;;5044604;28;20476;-80
2021/03/07 07:22:24;;;;;;;15.90;8.80;;;-0.60;99.90;;;;;;5053066;28;20079;-81
2021/03/07 07:24:53;;;;;;;15.87;9.30;;;-0.50;99.90;;;;;;5049926;28;20101;-79
2021/03/07 07:27:20;;;;;;;16.50;9.63;;;-0.40;99.90;;;;;;5052681;28;20033;-78
2021/03/07 07:29:46;;;;;;;18.27;9.97;;;-0.20;99.90;;;;;;5053964;28;20133;-80
2021/03/07 07:32:33;;;;;;;15.63;9.17;;;-0.10;99.90;;;;;;5035177;28;20069;-78
2021/03/07 07:35:06;;;;;;;14.13;8.90;;;0.00;99.90;;;;;;5051538;28;20427;-77
2021/03/07 07:37:40;;;;;;;16.80;9.83;;;0.10;99.90;;;;;;5047905;28;20469;-78
2021/03/07 07:40:07;;;;;;;18.07;9.77;;;0.20;99.90;;;;;;5034540;28;20021;-76
2021/03/07 07:42:34;;;;;;;16.67;10.37;;;0.30;99.90;;;;;;5048658;28;20083;-78
2021/03/07 07:45:20;;;;;;;16.07;10.00;;;0.50;99.90;;;;;;5034359;28;20040;-79
2021/03/07 07:47:49;;;;;;;15.83;10.20;;;0.50;99.90;;;;;;5037880;28;20036;-78
2021/03/07 07:50:30;;;;;;;19.23;10.90;;;0.50;99.90;;;;;;5045634;28;20056;-79
2021/03/07 07:53:18;;;;;;;16.40;9.53;;;0.50;99.90;;;;;;5046877;28;20025;-80
2021/03/07 07:55:53;;;;;;;17.87;10.93;;;0.80;99.90;;;;;;5035304;28;20453;-79
2021/03/07 07:58:37;;;;;;;17.73;10.60;;;0.90;99.90;;;;;;5049739;28;20112;-81
2021/03/07 08:01:09;;;;;;;16.13;10.23;;;1.00;99.90;;;;;;5049090;28;20025;-80
2021/03/07 08:03:39;;;;;;;18.33;10.33;;;1.10;99.90;;;;;;5044810;28;20029;-79
2021/03/07 08:06:06;;;;;;;19.27;10.63;;;1.30;99.90;;;;;;5043812;28;20197;-79
2021/03/07 08:08:37;;;;;;;19.63;10.73;;;1.40;99.90;;;;;;5041177;28;20035;-78
2021/03/07 08:11:05;;;;;;;20.20;10.40;;;1.30;99.90;;;;;;5050756;28;20116;-80
2021/03/07 08:13:33;;;;;;;20.10;11.40;;;1.40;99.90;;;;;;5043360;28;20024;-79
2021/03/07 08:16:05;;;;;;;18.47;11.07;;;1.50;99.90;;;;;;5045092;28;20052;-78
2021/03/07 08:18:51;;;;;;;18.60;10.80;;;1.60;99.90;;;;;;5041724;28;20025;-80
2021/03/07 08:21:22;;;;;;;18.80;11.03;;;1.70;99.90;;;;;;5046892;28;20030;-78
2021/03/07 08:24:10;;;;;;;18.90;11.17;;;1.80;99.90;;;;;;5038701;28;20017;-79
2021/03/07 08:26:44;;;;;;;19.13;10.83;;;1.90;99.90;;;;;;5055686;28;20049;-79
2021/03/07 08:29:48;;;;;;;19.13;11.13;;;2.00;99.90;;;;;;5041464;28;20049;-79
2021/03/07 08:32:27;;;;;;;18.80;11.07;;;2.20;99.90;;;;;;5034677;28;20022;-80
2021/03/07 08:34:54;;;;;;;20.27;11.43;;;2.40;99.90;;;;;;5036377;28;20044;-80
2021/03/07 08:37:21;;;;;;;19.42;11.50;;;2.50;99.90;;;;;;5037637;28;20032;-79
2021/03/07 08:39:47;;;;;;;18.35;11.20;;;2.60;99.90;;;;;;5040354;28;20037;-80
2021/03/07 08:42:28;;;;;;;16.20;10.90;;;2.80;99.90;;;;;;5048910;28;20043;-80
2021/03/07 08:45:16;;;;;;;20.00;11.32;;;2.90;99.90;;;;;;5050805;28;20021;-80
2021/03/07 08:47:55;;;;;;;19.48;10.93;;;3.10;99.90;;;;;;5038662;28;20030;-79
2021/03/07 08:50:23;;;;;;;16.45;10.15;;;3.20;99.90;;;;;;5037237;28;20084;-81
2021/03/07 08:52:49;;;;;;;20.13;10.98;;;3.40;99.90;;;;;;5044453;28;20048;-77
2021/03/07 08:55:15;;;;;;;18.80;10.73;;;3.30;99.90;;;;;;5046671;28;20079;-80
2021/03/07 08:57:48;;;;;;;17.70;10.98;;;3.40;99.90;;;;;;5044489;28;20026;-85
2021/03/07 09:00:17;;;;;;;17.15;10.77;;;3.40;99.90;;;;;;5034357;28;20053;-77
2021/03/07 09:02:43;;;;;;;18.52;11.27;;;3.70;99.90;;;;;;5053781;28;20036;-80
2021/03/07 09:05:30;;;;;;;16.20;10.57;;;3.70;99.90;;;;;;5046847;28;20094;-80
2021/03/07 09:07:58;;;;;;;19.30;10.48;;;3.60;99.90;;;;;;5047802;28;20041;-78
2021/03/07 09:10:59;;;;;;;17.10;10.38;;;3.50;99.90;;;;;;5047338;28;20044;-79
2021/03/07 09:13:27;;;;;;;18.13;10.80;;;3.50;99.90;;;;;;5004377;28;20232;-79
2021/03/07 09:16:04;;;;;;;17.75;10.43;;;3.50;99.90;;;;;;4989808;28;20042;-79
2021/03/07 09:18:32;;;;;;;18.45;10.25;;;3.70;99.90;;;;;;5000377;28;20041;-80
2021/03/07 09:21:01;;;;;;;16.35;10.07;;;3.90;99.90;;;;;;5004466;28;20065;-79
2021/03/07 09:23:53;;;;;;;18.10;10.00;;;4.20;99.90;;;;;;5001898;28;20117;-78
2021/03/07 09:26:22;;;;;;;17.52;10.05;;;4.30;99.90;;;;;;5002442;28;20516;-78
2021/03/07 09:28:52;;;;;;;17.80;10.77;;;4.30;99.90;;;;;;4998466;28;20124;-80
2021/03/07 09:31:23;;;;;;;14.95;10.00;;;4.40;99.90;;;;;;5005302;28;20042;-79
2021/03/07 09:33:49;;;;;;;18.80;10.68;;;4.70;99.90;;;;;;5004559;28;20104;-79
2021/03/07 09:36:17;;;;;;;16.52;10.10;;;4.90;99.90;;;;;;5006931;28;20144;-80
2021/03/07 09:38:53;;;;;;;16.35;9.88;;;5.00;99.90;;;;;;5006569;28;20038;-80
2021/03/07 09:41:35;;;;;;;19.08;10.63;;;5.10;99.90;;;;;;5004340;28;20720;-80
2021/03/07 09:44:03;;;;;;;16.13;9.95;;;5.10;99.90;;;;;;4999123;28;20089;-81
2021/03/07 09:46:29;;;;;;;19.25;10.48;;;5.20;99.90;;;;;;5004783;28;20025;-80
2021/03/07 09:48:58;;;;;;;15.07;10.48;;;5.30;99.90;;;;;;5006836;28;20092;-81
2021/03/07 09:51:28;;;;;;;16.10;9.57;;;5.50;99.90;;;;;;5000401;28;20117;-82
2021/03/07 09:53:54;;;;;;;17.48;9.52;;;5.50;99.90;;;;;;4999913;28;20484;-81
2021/03/07 09:56:27;;;;;;;16.88;9.52;;;5.50;99.90;;;;;;4989549;28;20045;-82
2021/03/07 09:58:53;;;;;;;17.73;10.65;;;5.60;99.90;;;;;;5000917;28;20108;-80
2021/03/07 10:01:19;;;;;;;16.40;10.05;;;5.60;99.90;;;;;;4979006;28;20585;-80
2021/03/07 10:03:45;;;;;;;15.73;10.15;;;5.70;99.90;;;;;;5035354;28;20420;-80
2021/03/07 10:06:18;;;;;;;17.15;10.63;;;6.00;99.90;;;;;;5046042;28;20083;-78
2021/03/07 10:09:01;;;;;;;15.80;10.13;;;6.00;99.90;;;;;;5046327;28;20138;-79
2021/03/07 10:11:27;;;;;;;16.77;10.35;;;6.10;99.90;;;;;;5036540;28;20548;-81
2021/03/07 10:14:04;;;;;;;15.65;9.82;;;6.10;99.90;;;;;;5027516;28;20116;-83
2021/03/07 10:16:32;;;;;;;15.63;10.32;;;6.10;99.90;;;;;;5042994;28;20026;-82
2021/03/07 10:19:08;;;;;;;16.70;10.48;;;6.10;99.90;;;;;;5044066;28;20120;-80
2021/03/07 10:21:35;;;;;;;16.50;9.73;;;6.30;99.90;;;;;;5042315;28;20408;-80
2021/03/07 10:24:12;;;;;;;16.38;9.73;;;6.40;99.90;;;;;;5045908;28;20017;-79
2021/03/07 10:26:40;;;;;;;15.27;9.80;;;6.30;99.90;;;;;;5051830;28;20036;-79
2021/03/07 10:29:26;;;;;;;15.95;8.65;;;6.40;99.90;;;;;;5046158;28;20033;-78
2021/03/07 10:31:59;;;;;;;17.08;8.75;;;6.20;99.90;;;;;;5039500;28;20101;-81
2021/03/07 10:34:41;;;;;;;13.73;9.27;;;6.20;99.90;;;;;;5039510;28;20079;-81
2021/03/07 10:37:08;;;;;;;15.95;9.52;;;6.30;99.90;;;;;;5031363;28;20117;-81
2021/03/07 10:39:34;;;;;;;14.65;9.38;;;6.60;99.90;;;;;;5044515;28;20091;-79
2021/03/07 10:42:09;;;;;;;14.70;9.05;;;6.90;99.90;;;;;;5035495;28;20402;-81
2021/03/07 10:44:35;;;;;;;15.43;9.50;;;7.10;99.90;;;;;;5042396;28;20032;-83
2021/03/07 10:47:15;;;;;;;14.32;9.57;;;7.20;99.90;;;;;;5037059;28;20037;-82
2021/03/07 10:49:41;;;;;;;16.02;9.70;;;7.30;99.90;;;;;;5041821;28;20025;-81
2021/03/07 10:52:06;;;;;;;15.55;9.40;;;7.60;99.90;;;;;;5046564;28;20413;-82
2021/03/07 10:54:32;;;;;;;17.52;9.57;;;7.60;99.90;;;;;;5032369;28;20034;-81
2021/03/07 10:56:58;;;;;;;18.30;9.70;;;7.60;99.90;;;;;;5037888;28;20547;-81
2021/03/07 10:59:24;;;;;;;17.02;10.00;;;7.80;99.90;;;;;;5045082;28;20036;-81
2021/03/07 11:01:50;;;;;;;17.80;9.43;;;7.90;99.90;;;;;;5043897;28;20159;-80
2021/03/07 11:04:16;;;;;;;16.52;10.25;;;8.00;99.90;;;;;;5043836;28;20037;-82
2021/03/07 11:06:43;;;;;;;14.68;9.68;;;8.10;99.90;;;;;;5041923;28;20036;-82
2021/03/07 11:09:08;;;;;;;15.55;9.32;;;7.80;99.90;;;;;;5047269;28;20037;-81
2021/03/07 11:11:34;;;;;;;16.92;9.68;;;7.70;99.90;;;;;;5042533;28;20048;-81
2021/03/07 11:14:00;;;;;;;18.33;10.25;;;8.00;99.90;;;;;;5045074;28;20072;-81
2021/03/07 11:16:25;;;;;;;15.63;10.15;;;8.20;99.90;;;;;;5039194;28;20125;-79
2021/03/07 11:18:51;;;;;;;17.77;10.23;;;8.30;99.90;;;;;;5045030;28;20029;-81
2021/03/07 11:21:18;;;;;;;23.65;11.38;;;8.40;99.90;;;;;;5048451;28;20025;-80
2021/03/07 11:23:43;;;;;;;29.92;11.77;;;8.60;99.90;;;;;;5045744;28;20041;-79
2021/03/07 11:26:12;;;;;;;16.77;9.93;;;8.60;99.90;;;;;;5044901;28;20338;-81
2021/03/07 11:28:41;;;;;;;17.85;10.07;;;8.70;99.90;;;;;;5049023;28;20037;-88
2021/03/07 11:31:07;;;;;;;14.52;9.82;;;8.60;99.90;;;;;;5044097;28;20570;-85
2021/03/07 11:33:32;;;;;;;20.23;10.27;;;8.70;99.90;;;;;;5035704;28;20124;-83
2021/03/07 11:35:58;;;;;;;17.15;10.48;;;8.90;99.90;;;;;;5042100;28;20040;-81
2021/03/07 11:38:24;;;;;;;14.43;9.80;;;9.20;99.90;;;;;;5042353;28;20056;-84
2021/03/07 11:40:49;;;;;;;14.60;9.48;;;9.30;99.90;;;;;;5039681;28;20025;-82
2021/03/07 11:43:15;;;;;;;17.45;10.80;;;9.40;99.90;;;;;;5034208;28;20068;-78
2021/03/07 11:45:41;;;;;;;17.55;10.25;;;8.90;99.90;;;;;;5045126;28;20500;-80
2021/03/07 11:48:08;;;;;;;16.27;9.90;;;9.10;99.90;;;;;;5044229;28;20092;-75
2021/03/07 11:50:34;;;;;;;15.60;9.48;;;9.00;99.90;;;;;;5047496;28;20040;-77
2021/03/07 11:52:59;;;;;;;18.77;10.05;;;9.00;99.90;;;;;;5040545;28;20021;-80
2021/03/07 11:55:25;;;;;;;17.83;10.15;;;9.00;99.90;;;;;;5038175;28;20215;-78
2021/03/07 11:57:50;;;;;;;18.35;9.88;;;9.20;99.90;;;;;;5048943;28;20044;-78
2021/03/07 12:00:16;;;;;;;16.75;9.73;;;9.30;99.90;;;;;;5040737;28;20600;-79
2021/03/07 12:02:42;;;;;;;14.63;9.65;;;9.30;99.90;;;;;;5038921;28;20439;-79
2021/03/07 12:05:08;;;;;;;18.17;9.80;;;9.20;99.90;;;;;;5047833;28;20036;-78
2021/03/07 12:07:34;;;;;;;19.20;10.52;;;9.40;99.90;;;;;;5044286;28;20037;-77
2021/03/07 12:10:00;;;;;;;17.10;10.25;;;9.30;99.90;;;;;;5043560;28;20087;-78
2021/03/07 12:12:26;;;;;;;18.33;11.23;;;9.40;99.90;;;;;;5039921;28;20582;-77
2021/03/07 12:14:51;;;;;;;16.48;9.57;;;9.50;99.90;;;;;;5042123;28;20067;-78
2021/03/07 12:17:17;;;;;;;14.77;10.07;;;9.60;99.90;;;;;;5049591;28;20033;-83
2021/03/07 12:19:42;;;;;;;19.90;10.45;;;9.40;99.90;;;;;;5054825;28;20021;-79
2021/03/07 12:22:08;;;;;;;15.23;10.35;;;9.30;99.90;;;;;;5037791;28;20095;-79
2021/03/07 12:24:34;;;;;;;17.95;10.30;;;9.20;99.90;;;;;;5048753;28;20025;-83
2021/03/07 12:27:04;;;;;;;20.00;10.45;;;9.10;99.90;;;;;;5038653;28;20033;-78
2021/03/07 12:29:35;;;;;;;16.15;9.90;;;8.60;99.90;;;;;;5043596;28;20045;-79
2021/03/07 12:32:01;;;;;;;18.20;11.40;;;8.50;99.90;;;;;;5032454;28;20026;-85
2021/03/07 12:34:27;;;;;;;17.92;10.32;;;8.70;99.90;;;;;;5044809;28;20067;-83
2021/03/07 12:36:53;;;;;;;20.30;11.45;;;8.70;99.90;;;;;;5048579;28;20028;-83
2021/03/07 12:39:19;;;;;;;19.42;11.40;;;8.60;99.90;;;;;;5039146;28;20033;-82
2021/03/07 12:41:45;;;;;;;18.05;11.63;;;8.50;99.90;;;;;;5046209;28;20017;-84
2021/03/07 12:44:11;;;;;;;19.67;11.15;;;8.50;99.90;;;;;;5043371;28;20119;-87
2021/03/07 12:46:37;;;;;;;18.20;11.45;;;8.70;99.90;;;;;;5045496;28;20032;-82